Time;durP1;ratioP1;P1;durP2;ratioP2;P2;SDS_P1;SDS_P2;PMS_P1;PMS_P2;Temp;Humidity;BMP_temperature;BMP_pressure;BME280_temperature;BME280_humidity;BME280_pressure;Samples;Min_cycle;Max_cycle;Signal;HPM_P1;HPM_P2
2023/12/28 00:01:21;;;;;;;;;;;;;;;2.03;91.55;96322.41;5105706;28;2210;-59
2023/12/28 00:03:47;;;;;;;;;;;;;;;1.91;91.85;96332.66;5102102;28;1942;-58
2023/12/28 00:06:13;;;;;;;;;;;;;;;1.88;91.70;96334.63;5102179;28;2410;-58
2023/12/28 00:08:40;;;;;;;;;;;;;;;1.75;91.69;96329.97;5107192;28;2427;-58
2023/12/28 00:11:06;;;;;;;;;;;;;;;1.84;92.10;96339.22;5098946;28;2135;-59
2023/12/28 00:13:32;;;;;;;;;;;;;;;1.61;92.21;96343.00;5100950;28;2170;-58
2023/12/28 00:15:58;;;;;;;;;;;;;;;1.60;92.74;96349.22;5086506;28;1995;-59
2023/12/28 00:18:25;;;;;;;;;;;;;;;1.69;92.24;96348.75;5081908;28;2066;-58
2023/12/28 00:20:51;;;;;;;;;;;;;;;1.75;92.19;96356.34;5080702;28;1870;-58
2023/12/28 00:23:17;;;;;;;;;;;;;;;1.51;92.83;96355.78;5086750;28;1885;-58
2023/12/28 00:25:43;;;;;;;;;;;;;;;1.31;94.23;96351.53;5083478;28;2290;-58
2023/12/28 00:28:09;;;;;;;;;;;;;;;1.44;94.44;96348.25;5085826;28;2083;-58
2023/12/28 00:30:35;;;;;;;;;;;;;;;1.54;93.19;96347.75;5076748;28;2040;-58
2023/12/28 00:33:02;;;;;;;;;;;;;;;1.73;93.75;96352.09;5082274;28;1900;-59
2023/12/28 00:35:28;;;;;;;;;;;;;;;1.75;93.22;96359.00;5085776;28;2120;-59
2023/12/28 00:37:54;;;;;;;;;;;;;;;1.79;93.06;96369.38;5082638;28;2301;-59
2023/12/28 00:40:21;;;;;;;;;;;;;;;1.77;92.83;96368.63;5084805;28;1923;-59
2023/12/28 00:42:48;;;;;;;;;;;;;;;1.63;93.39;96369.28;5079839;28;2396;-59
2023/12/28 00:45:14;;;;;;;;;;;;;;;1.60;93.12;96354.50;5087667;28;2176;-59
2023/12/28 00:47:42;;;;;;;;;;;;;;;1.65;92.55;96367.44;5079222;28;2095;-59
2023/12/28 00:50:09;;;;;;;;;;;;;;;1.44;92.63;96366.72;5086833;28;2054;-59
2023/12/28 00:52:35;;;;;;;;;;;;;;;1.38;92.88;96365.22;5093143;28;2397;-59
2023/12/28 00:55:01;;;;;;;;;;;;;;;1.38;93.52;96356.47;5093332;28;1910;-59
2023/12/28 00:57:27;;;;;;;;;;;;;;;1.52;93.42;96375.97;5093729;28;1036;-59
2023/12/28 00:59:52;;;;;;;;;;;;;;;1.51;93.05;96373.41;5093777;28;914;-59
2023/12/28 01:02:18;;;;;;;;;;;;;;;1.41;92.34;96377.44;5093353;28;1257;-59
2023/12/28 01:04:44;;;;;;;;;;;;;;;1.34;91.78;96377.69;5093928;28;1147;-59
2023/12/28 01:07:10;;;;;;;;;;;;;;;1.34;92.30;96379.50;5093912;28;1053;-59
2023/12/28 01:09:37;;;;;;;;;;;;;;;1.36;93.12;96373.22;5093761;28;1057;-59
2023/12/28 01:12:03;;;;;;;;;;;;;;;1.48;92.73;96366.50;5093922;28;1012;-59
2023/12/28 01:14:29;;;;;;;;;;;;;;;1.29;91.72;96366.56;5095782;28;1909;-59
2023/12/28 01:16:55;;;;;;;;;;;;;;;1.24;92.47;96373.81;5096185;28;1037;-59
2023/12/28 01:19:23;;;;;;;;;;;;;;;1.06;93.52;96375.53;5114034;28;1000;-59
2023/12/28 01:21:49;;;;;;;;;;;;;;;1.15;94.30;96383.00;5114016;28;964;-59
2023/12/28 01:24:15;;;;;;;;;;;;;;;1.25;93.73;96380.81;5113762;28;1039;-58
2023/12/28 01:26:41;;;;;;;;;;;;;;;1.13;92.99;96382.22;5113778;28;1036;-59
2023/12/28 01:29:07;;;;;;;;;;;;;;;1.10;93.36;96386.78;5113813;28;1040;-58
2023/12/28 01:31:33;;;;;;;;;;;;;;;1.17;93.16;96393.47;5113927;28;993;-60
2023/12/28 01:33:59;;;;;;;;;;;;;;;1.15;92.71;96390.91;5113681;28;1913;-59
2023/12/28 01:36:26;;;;;;;;;;;;;;;0.96;94.05;96390.94;5113937;28;1047;-60
2023/12/28 01:38:52;;;;;;;;;;;;;;;1.15;93.91;96395.34;5113617;28;1036;-59
2023/12/28 01:41:18;;;;;;;;;;;;;;;1.28;93.66;96387.69;5113605;28;1029;-59
2023/12/28 01:43:44;;;;;;;;;;;;;;;1.29;93.24;96394.66;5113651;28;1096;-59
2023/12/28 01:46:17;;;;;;;;;;;;;;;1.27;93.50;96399.16;5113575;28;1049;-60
2023/12/28 01:48:44;;;;;;;;;;;;;;;1.22;92.47;96393.28;5117652;28;1056;-60
2023/12/28 01:51:11;;;;;;;;;;;;;;;1.21;91.74;96394.19;5117880;28;1044;-60
2023/12/28 01:53:37;;;;;;;;;;;;;;;1.01;92.35;96395.16;5117931;28;976;-59
2023/12/28 01:56:04;;;;;;;;;;;;;;;0.93;93.54;96391.09;5117639;28;1913;-60
2023/12/28 01:58:32;;;;;;;;;;;;;;;1.03;94.24;96380.13;5117487;28;1044;-60
2023/12/28 02:00:58;;;;;;;;;;;;;;;0.94;93.79;96391.94;5117542;28;965;-59
2023/12/28 02:03:25;;;;;;;;;;;;;;;0.98;93.65;96390.88;5117559;28;1178;-59
2023/12/28 02:05:51;;;;;;;;;;;;;;;1.02;93.58;96388.94;5117429;28;1130;-59
2023/12/28 02:08:17;;;;;;;;;;;;;;;1.11;93.25;96378.81;5117524;28;1004;-60
2023/12/28 02:10:43;;;;;;;;;;;;;;;1.17;92.84;96378.50;5117436;28;1032;-60
2023/12/28 02:13:09;;;;;;;;;;;;;;;1.16;92.77;96376.81;5117312;28;941;-60
2023/12/28 02:15:35;;;;;;;;;;;;;;;0.91;92.58;96376.28;5116971;28;1913;-59
2023/12/28 02:18:05;;;;;;;;;;;;;;;0.77;93.56;96382.19;5117216;28;1032;-60
2023/12/28 02:20:32;;;;;;;;;;;;;;;0.87;94.26;96383.47;5117417;28;965;-59
2023/12/28 02:22:58;;;;;;;;;;;;;;;1.02;94.16;96373.97;5117055;28;1115;-59
2023/12/28 02:25:24;;;;;;;;;;;;;;;1.02;93.49;96379.25;5117081;28;961;-59
2023/12/28 02:27:50;;;;;;;;;;;;;;;1.07;92.73;96381.69;5117143;28;985;-60
2023/12/28 02:30:17;;;;;;;;;;;;;;;1.05;92.88;96380.91;5098813;28;1071;-59
2023/12/28 02:33:07;;;;;;;;;;;;;;;0.94;93.06;96369.09;5116916;28;1032;-59
2023/12/28 02:35:35;;;;;;;;;;;;;;;0.59;93.73;96365.47;5106420;28;1905;-59
2023/12/28 02:38:02;;;;;;;;;;;;;;;0.47;93.91;96372.13;5116858;28;1056;-60
2023/12/28 02:40:31;;;;;;;;;;;;;;;0.52;95.17;96382.47;5116700;28;989;-59
2023/12/28 02:42:57;;;;;;;;;;;;;;;0.65;94.52;96385.41;5116740;28;1080;-59
2023/12/28 02:45:23;;;;;;;;;;;;;;;0.75;93.75;96382.25;5116919;28;1048;-59
2023/12/28 02:47:49;;;;;;;;;;;;;;;0.79;93.70;96382.97;5116977;28;985;-59
2023/12/28 02:50:15;;;;;;;;;;;;;;;0.97;93.00;96379.47;5116475;28;921;-59
2023/12/28 02:52:41;;;;;;;;;;;;;;;0.95;92.54;96383.97;5116881;28;1008;-59
2023/12/28 02:55:07;;;;;;;;;;;;;;;0.90;92.00;96380.69;5116651;28;1918;-59
2023/12/28 02:57:37;;;;;;;;;;;;;;;0.91;91.84;96374.50;5116618;28;1003;-60
2023/12/28 03:00:04;;;;;;;;;;;;;;;0.61;91.75;96383.81;5115774;28;1019;-59
2023/12/28 03:02:30;;;;;;;;;;;;;;;0.45;93.71;96373.13;5116270;28;1052;-60
2023/12/28 03:04:56;;;;;;;;;;;;;;;0.48;94.47;96365.97;5116376;28;1193;-60
2023/12/28 03:07:22;;;;;;;;;;;;;;;0.49;94.37;96374.69;5116254;28;1012;-60
2023/12/28 03:09:48;;;;;;;;;;;;;;;0.58;94.61;96369.03;5116459;28;969;-59
2023/12/28 03:12:16;;;;;;;;;;;;;;;0.66;93.77;96377.41;5116343;28;1064;-60
2023/12/28 03:14:42;;;;;;;;;;;;;;;0.71;93.82;96370.16;5116082;28;1991;-60
2023/12/28 03:17:08;;;;;;;;;;;;;;;0.83;93.43;96365.25;5116291;28;1011;-60
2023/12/28 03:19:35;;;;;;;;;;;;;;;0.69;91.96;96368.53;5115939;28;1484;-59
2023/12/28 03:22:01;;;;;;;;;;;;;;;0.70;92.36;96364.97;5116243;28;1039;-60
2023/12/28 03:24:27;;;;;;;;;;;;;;;0.66;91.96;96360.78;5115862;28;975;-59
2023/12/28 03:26:53;;;;;;;;;;;;;;;0.34;92.90;96361.34;5115902;28;921;-60
2023/12/28 03:29:19;;;;;;;;;;;;;;;0.35;94.26;96351.66;5115822;28;1079;-60
2023/12/28 03:31:45;;;;;;;;;;;;;;;0.43;93.75;96354.78;5115798;28;1044;-59
2023/12/28 03:34:12;;;;;;;;;;;;;;;0.54;93.29;96364.81;5115699;28;1995;-60
2023/12/28 03:36:38;;;;;;;;;;;;;;;0.58;92.45;96364.59;5116067;28;1050;-59
2023/12/28 03:39:05;;;;;;;;;;;;;;;0.51;92.48;96360.56;5115603;28;981;-60
2023/12/28 03:41:31;;;;;;;;;;;;;;;0.51;92.61;96365.84;5115532;28;1024;-60
2023/12/28 03:43:57;;;;;;;;;;;;;;;0.51;92.44;96363.19;5115850;28;1008;-60
2023/12/28 03:46:23;;;;;;;;;;;;;;;0.48;91.56;96360.69;5115389;28;1123;-60
2023/12/28 03:48:49;;;;;;;;;;;;;;;0.26;91.51;96352.06;5115744;28;1120;-60
2023/12/28 03:51:15;;;;;;;;;;;;;;;0.06;92.19;96353.81;5115505;28;977;-61
2023/12/28 03:53:41;;;;;;;;;;;;;;;-0.04;93.19;96365.63;5115259;28;985;-60
2023/12/28 03:56:07;;;;;;;;;;;;;;;0.08;93.22;96370.38;5097339;28;1996;-60
2023/12/28 03:58:33;;;;;;;;;;;;;;;0.26;93.45;96365.22;5115224;28;1037;-60
2023/12/28 04:00:59;;;;;;;;;;;;;;;0.47;94.22;96369.50;5115180;28;1191;-59
2023/12/28 04:03:26;;;;;;;;;;;;;;;0.55;92.82;96370.03;5114938;28;1158;-59
2023/12/28 04:05:52;;;;;;;;;;;;;;;0.30;91.33;96369.41;5115388;28;1051;-59
2023/12/28 04:08:18;;;;;;;;;;;;;;;0.03;93.14;96364.47;5115219;28;1251;-60
2023/12/28 04:10:44;;;;;;;;;;;;;;;0.12;93.68;96365.84;5114950;28;1057;-60
2023/12/28 04:13:10;;;;;;;;;;;;;;;0.28;93.86;96368.63;5115224;28;1056;-60
2023/12/28 04:15:36;;;;;;;;;;;;;;;0.34;93.72;96365.72;5114780;28;1989;-60
2023/12/28 04:18:02;;;;;;;;;;;;;;;0.24;93.38;96365.28;5115190;28;977;-60
2023/12/28 04:20:28;;;;;;;;;;;;;;;0.23;93.62;96367.97;5115011;28;1000;-60
2023/12/28 04:22:54;;;;;;;;;;;;;;;0.24;93.04;96364.44;5114725;28;984;-60
2023/12/28 04:25:20;;;;;;;;;;;;;;;0.17;91.58;96367.34;5114987;28;988;-60
2023/12/28 04:27:46;;;;;;;;;;;;;;;0.02;93.02;96361.88;5115004;28;1049;-59
2023/12/28 04:30:12;;;;;;;;;;;;;;;-0.14;93.54;96366.97;5114850;28;1057;-59
2023/12/28 04:32:39;;;;;;;;;;;;;;;-0.05;93.79;96359.53;5114698;28;1036;-60
2023/12/28 04:35:05;;;;;;;;;;;;;;;0.13;93.22;96368.41;5096442;28;1983;-60
2023/12/28 04:37:32;;;;;;;;;;;;;;;0.23;92.81;96367.97;5114439;28;1026;-59
2023/12/28 04:39:58;;;;;;;;;;;;;;;0.18;91.33;96379.56;5114665;28;1043;-60
2023/12/28 04:42:24;;;;;;;;;;;;;;;0.28;92.70;96369.47;5114558;28;1040;-60
2023/12/28 04:44:50;;;;;;;;;;;;;;;0.26;92.20;96358.16;5114607;28;1048;-60
2023/12/28 04:47:16;;;;;;;;;;;;;;;0.12;92.63;96365.84;5114321;28;1038;-60
2023/12/28 04:49:42;;;;;;;;;;;;;;;-0.02;92.02;96363.78;5114567;28;1059;-60
2023/12/28 04:52:08;;;;;;;;;;;;;;;-0.18;92.29;96362.78;5114434;28;970;-60
2023/12/28 04:54:34;;;;;;;;;;;;;;;-0.07;93.45;96363.16;5114274;28;1910;-60
2023/12/28 04:57:00;;;;;;;;;;;;;;;-0.06;94.19;96368.38;5114375;28;976;-60
2023/12/28 04:59:26;;;;;;;;;;;;;;;0.07;94.37;96373.06;5114332;28;1048;-60
2023/12/28 05:01:52;;;;;;;;;;;;;;;0.18;93.83;96376.94;5114181;28;972;-60
2023/12/28 05:04:18;;;;;;;;;;;;;;;0.23;92.74;96368.84;5114151;28;1170;-60
2023/12/28 05:06:44;;;;;;;;;;;;;;;0.09;90.71;96377.34;5114011;28;995;-60
2023/12/28 05:09:10;;;;;;;;;;;;;;;0.00;91.16;96377.75;5114151;28;1071;-60
2023/12/28 05:11:36;;;;;;;;;;;;;;;0.07;92.09;96371.28;5114164;28;1045;-60
2023/12/28 05:14:01;;;;;;;;;;;;;;;0.11;93.09;96378.13;5095757;28;1037;-60
2023/12/28 05:16:29;;;;;;;;;;;;;;;0.17;93.23;96377.00;5113549;28;2008;-60
2023/12/28 05:18:55;;;;;;;;;;;;;;;0.13;92.07;96378.94;5113140;28;1538;-60
2023/12/28 05:21:21;;;;;;;;;;;;;;;0.12;91.63;96385.09;5113235;28;962;-61
2023/12/28 05:23:47;;;;;;;;;;;;;;;0.07;90.83;96384.44;5113639;28;1128;-60
2023/12/28 05:26:13;;;;;;;;;;;;;;;0.11;91.88;96382.53;5095734;28;1045;-61
2023/12/28 05:28:39;;;;;;;;;;;;;;;-0.14;91.65;96386.22;5113810;28;1193;-61
2023/12/28 05:31:05;;;;;;;;;;;;;;;-0.32;92.49;96387.88;5114171;28;1125;-61
2023/12/28 05:33:31;;;;;;;;;;;;;;;-0.17;92.95;96390.75;5113886;28;1061;-61
2023/12/28 05:35:57;;;;;;;;;;;;;;;-0.17;91.85;96391.63;5095585;28;1997;-60
2023/12/28 05:38:23;;;;;;;;;;;;;;;-0.17;92.16;96390.75;5113754;28;1064;-61
2023/12/28 05:40:49;;;;;;;;;;;;;;;-0.12;93.10;96396.69;5114009;28;1056;-61
2023/12/28 05:43:15;;;;;;;;;;;;;;;-0.22;91.62;96402.31;5113806;28;1116;-61
2023/12/28 05:45:41;;;;;;;;;;;;;;;-0.27;91.59;96395.56;5095882;28;988;-61
2023/12/28 05:48:07;;;;;;;;;;;;;;;-0.23;92.26;96397.13;5095818;28;945;-61
2023/12/28 05:50:33;;;;;;;;;;;;;;;-0.22;92.31;96402.31;5095685;28;1131;-61
2023/12/28 05:52:59;;;;;;;;;;;;;;;-0.16;91.67;96397.72;5113871;28;1012;-61
2023/12/28 05:55:25;;;;;;;;;;;;;;;-0.10;91.75;96400.09;5113801;28;1913;-60
2023/12/28 05:57:51;;;;;;;;;;;;;;;-0.12;91.46;96399.31;5113814;28;1044;-61
2023/12/28 06:00:17;;;;;;;;;;;;;;;-0.25;91.33;96397.22;5113514;28;1036;-61
2023/12/28 06:02:43;;;;;;;;;;;;;;;-0.43;89.77;96388.31;5113754;28;1083;-61
2023/12/28 06:05:10;;;;;;;;;;;;;;;-0.50;89.99;96399.13;5095843;28;1190;-61
2023/12/28 06:07:36;;;;;;;;;;;;;;;-0.48;90.56;96405.19;5113556;28;1040;-61
2023/12/28 06:10:02;;;;;;;;;;;;;;;-0.37;90.28;96402.97;5113352;28;1048;-60
2023/12/28 06:12:28;;;;;;;;;;;;;;;-0.23;91.33;96405.00;5113647;28;980;-61
2023/12/28 06:14:54;;;;;;;;;;;;;;;-0.39;91.37;96399.56;5113126;28;1910;-61
2023/12/28 06:17:20;;;;;;;;;;;;;;;-0.42;91.57;96405.81;5113299;28;1185;-61
2023/12/28 06:19:46;;;;;;;;;;;;;;;-0.32;90.50;96408.91;5113290;28;1111;-61
2023/12/28 06:22:12;;;;;;;;;;;;;;;-0.22;91.84;96404.09;5113087;28;1056;-60
2023/12/28 06:24:39;;;;;;;;;;;;;;;-0.10;91.69;96408.81;5113378;28;1051;-59
2023/12/28 06:27:05;;;;;;;;;;;;;;;0.08;90.12;96406.34;5112262;28;1563;-60
2023/12/28 06:29:31;;;;;;;;;;;;;;;-0.06;88.85;96406.94;5112934;28;1053;-60
2023/12/28 06:31:57;;;;;;;;;;;;;;;-0.48;89.51;96405.19;5113117;28;999;-59
2023/12/28 06:34:23;;;;;;;;;;;;;;;-0.64;92.52;96408.44;5107408;28;1926;-58
2023/12/28 06:36:49;;;;;;;;;;;;;;;-0.49;92.84;96403.50;5104293;28;2701;-58
2023/12/28 06:39:15;;;;;;;;;;;;;;;0.67;90.10;96410.72;5106479;28;1900;-59
2023/12/28 06:41:41;;;;;;;;;;;;;;;3.07;78.49;96414.53;5105662;28;2088;-60
2023/12/28 06:44:08;;;;;;;;;;;;;;;5.08;69.58;96430.13;5107889;28;1920;-59
2023/12/28 06:46:34;;;;;;;;;;;;;;;6.65;62.37;96438.47;5102679;28;2086;-60
2023/12/28 06:49:00;;;;;;;;;;;;;;;8.04;54.72;96449.91;5103801;28;2075;-60
2023/12/28 06:51:26;;;;;;;;;;;;;;;8.92;50.99;96461.00;5105920;28;2239;-59
2023/12/28 06:53:52;;;;;;;;;;;;;;;9.82;49.74;96459.28;5108437;28;2119;-59
2023/12/28 06:56:18;;;;;;;;;;;;;;;10.19;48.18;96465.16;5106073;28;2472;-59
2023/12/28 06:58:44;;;;;;;;;;;;;;;9.91;48.63;96467.41;5104633;28;2158;-59
2023/12/28 07:01:11;;;;;;;;;;;;;;;9.91;48.60;96462.06;5086533;28;1942;-59
2023/12/28 07:03:37;;;;;;;;;;;;;;;10.54;48.04;96458.72;5104659;28;2032;-58
2023/12/28 07:06:03;;;;;;;;;;;;;;;11.75;45.32;96468.00;5098825;28;2119;-59
2023/12/28 07:08:29;;;;;;;;;;;;;;;12.68;42.72;96475.63;5098888;28;2160;-56
2023/12/28 07:10:55;;;;;;;;;;;;;;;13.30;41.72;96488.72;5104956;28;2339;-56
2023/12/28 07:13:21;;;;;;;;;;;;;;;13.22;41.35;96486.72;5103413;28;1997;-56
2023/12/28 07:15:47;;;;;;;;;;;;;;;13.40;41.07;96476.09;5086697;28;1914;-56
2023/12/28 07:18:13;;;;;;;;;;;;;;;13.55;41.16;96489.06;5105342;28;2147;-56
2023/12/28 07:20:39;;;;;;;;;;;;;;;13.41;42.05;96483.19;5107868;28;2808;-56
2023/12/28 07:23:04;;;;;;;;;;;;;;;13.64;41.80;96483.66;5099596;28;2434;-56
2023/12/28 07:25:31;;;;;;;;;;;;;;;14.10;40.77;96478.34;5099938;28;2151;-56
2023/12/28 07:27:57;;;;;;;;;;;;;;;13.39;41.96;96470.88;5101952;28;2014;-56
2023/12/28 07:30:23;;;;;;;;;;;;;;;11.91;45.40;96462.97;5105509;28;2652;-55
2023/12/28 07:32:48;;;;;;;;;;;;;;;10.00;50.27;96447.13;5105161;28;2900;-57
2023/12/28 07:35:15;;;;;;;;;;;;;;;7.88;57.54;96419.09;5103174;28;2045;-55
2023/12/28 07:37:40;;;;;;;;;;;;;;;5.93;66.06;96401.66;5099086;28;2378;-57
2023/12/28 07:40:07;;;;;;;;;;;;;;;4.65;71.74;96390.41;5101835;28;1891;-57
2023/12/28 07:42:33;;;;;;;;;;;;;;;3.89;76.41;96386.97;5096772;28;1646;-57
2023/12/28 07:44:59;;;;;;;;;;;;;;;3.48;78.80;96392.84;5085120;28;1911;-57
2023/12/28 07:47:26;;;;;;;;;;;;;;;3.25;80.60;96406.53;5082049;28;1972;-56
2023/12/28 07:49:52;;;;;;;;;;;;;;;3.03;81.89;96415.63;5105570;28;2258;-55
2023/12/28 07:52:18;;;;;;;;;;;;;;;2.95;83.24;96419.63;5105442;28;2358;-55
2023/12/28 07:54:44;;;;;;;;;;;;;;;2.96;83.62;96416.03;5089760;28;1942;-56
2023/12/28 07:57:11;;;;;;;;;;;;;;;3.02;84.24;96415.72;5096244;28;2099;-57
2023/12/28 07:59:36;;;;;;;;;;;;;;;3.00;84.94;96414.94;5094221;28;1048;-57
2023/12/28 08:02:04;;;;;;;;;;;;;;;2.97;85.47;96418.59;5094246;28;1099;-57
2023/12/28 08:04:31;;;;;;;;;;;;;;;3.02;85.38;96416.56;5076619;28;1665;-57
2023/12/28 08:06:57;;;;;;;;;;;;;;;3.17;85.18;96421.94;5075917;28;2082;-57
2023/12/28 08:09:23;;;;;;;;;;;;;;;3.09;86.17;96420.59;5093777;28;1714;-57
2023/12/28 08:11:49;;;;;;;;;;;;;;;3.08;85.85;96420.69;5094381;28;1076;-57
2023/12/28 08:14:15;;;;;;;;;;;;;;;3.25;86.35;96419.75;5092389;28;2012;-57
2023/12/28 08:16:41;;;;;;;;;;;;;;;3.08;86.92;96421.50;5074197;28;966;-57
2023/12/28 08:19:07;;;;;;;;;;;;;;;3.25;86.63;96431.16;5074148;28;971;-57
2023/12/28 08:21:33;;;;;;;;;;;;;;;3.18;86.86;96426.31;5074316;28;999;-57
2023/12/28 08:23:59;;;;;;;;;;;;;;;3.28;86.43;96428.38;5073205;28;1036;-56
2023/12/28 08:26:26;;;;;;;;;;;;;;;3.49;85.68;96417.50;5073963;28;1025;-56
2023/12/28 08:28:52;;;;;;;;;;;;;;;3.62;84.49;96415.00;5089274;28;1159;-57
2023/12/28 08:31:18;;;;;;;;;;;;;;;3.75;83.23;96409.88;5094177;28;968;-57
2023/12/28 08:33:44;;;;;;;;;;;;;;;4.01;80.81;96411.84;5094168;28;978;-56
2023/12/28 08:36:11;;;;;;;;;;;;;;;4.01;80.16;96403.91;5094145;28;1918;-57
2023/12/28 08:38:37;;;;;;;;;;;;;;;4.08;81.72;96397.31;5094134;28;1075;-57
2023/12/28 08:41:08;;;;;;;;;;;;;;;4.20;81.17;96395.75;5094018;28;1129;-57
2023/12/28 08:43:35;;;;;;;;;;;;;;;4.20;81.48;96400.19;5075849;28;1032;-57
2023/12/28 08:46:01;;;;;;;;;;;;;;;4.11;83.43;96397.13;5093751;28;1127;-57
2023/12/28 08:48:27;;;;;;;;;;;;;;;4.26;81.86;96394.53;5093797;28;1099;-57
2023/12/28 08:50:53;;;;;;;;;;;;;;;4.52;81.32;96406.19;5093760;28;1025;-57
2023/12/28 08:53:19;;;;;;;;;;;;;;;4.56;81.00;96398.91;5093670;28;1250;-57
2023/12/28 08:55:44;;;;;;;;;;;;;;;4.71;81.45;96399.78;5093573;28;1989;-57
2023/12/28 08:58:10;;;;;;;;;;;;;;;4.79;80.89;96405.44;5093079;28;978;-56
2023/12/28 09:00:36;;;;;;;;;;;;;;;5.07;78.96;96392.16;5093613;28;1045;-57
2023/12/28 09:03:03;;;;;;;;;;;;;;;5.32;77.62;96398.56;5093515;28;990;-57
2023/12/28 09:05:29;;;;;;;;;;;;;;;5.30;77.31;96389.84;5093498;28;1084;-57
2023/12/28 09:07:55;;;;;;;;;;;;;;;5.65;76.11;96387.56;5093802;28;1044;-57
2023/12/28 09:10:21;;;;;;;;;;;;;;;6.29;73.37;96381.56;5093608;28;984;-57
2023/12/28 09:12:48;;;;;;;;;;;;;;;6.39;72.17;96382.66;5093495;28;922;-57
2023/12/28 09:15:14;;;;;;;;;;;;;;;6.58;71.46;96381.38;5080354;28;1997;-57
2023/12/28 09:17:41;;;;;;;;;;;;;;;6.89;70.65;96379.25;5093683;28;1064;-57
2023/12/28 09:20:08;;;;;;;;;;;;;;;6.91;69.80;96369.34;5093626;28;1182;-57
2023/12/28 09:22:34;;;;;;;;;;;;;;;6.93;70.50;96370.94;5093615;28;1036;-56
2023/12/28 09:25:00;;;;;;;;;;;;;;;7.46;68.83;96360.06;5093485;28;965;-56
2023/12/28 09:27:25;;;;;;;;;;;;;;;7.68;68.13;96359.31;5093423;28;1201;-56
2023/12/28 09:29:51;;;;;;;;;;;;;;;7.83;66.92;96354.66;5093167;28;1092;-56
2023/12/28 09:32:18;;;;;;;;;;;;;;;7.84;67.46;96345.72;5093110;28;1028;-56
2023/12/28 09:34:44;;;;;;;;;;;;;;;8.00;67.10;96348.91;5079307;28;2494;-56
2023/12/28 09:37:10;;;;;;;;;;;;;;;8.16;66.39;96345.09;5073122;28;985;-57
2023/12/28 09:39:36;;;;;;;;;;;;;;;8.28;65.69;96336.16;5073015;28;1056;-56
2023/12/28 09:42:09;;;;;;;;;;;;;;;8.71;64.87;96324.00;5073012;28;986;-57
2023/12/28 09:44:38;;;;;;;;;;;;;;;8.90;64.28;96318.91;5073052;28;1053;-57
2023/12/28 09:47:06;;;;;;;;;;;;;;;8.66;63.83;96311.03;5072802;28;1064;-57
2023/12/28 09:49:33;;;;;;;;;;;;;;;8.98;63.66;96295.13;5073143;28;1048;-56
2023/12/28 09:52:00;;;;;;;;;;;;;;;8.63;64.13;96291.75;5072750;28;1203;-57
2023/12/28 09:54:26;;;;;;;;;;;;;;;8.69;64.50;96286.81;5072785;28;1983;-57
2023/12/28 09:56:52;;;;;;;;;;;;;;;9.11;63.78;96280.81;5088346;28;1111;-56
2023/12/28 09:59:19;;;;;;;;;;;;;;;9.41;63.49;96277.47;5072771;28;1124;-57
2023/12/28 10:01:46;;;;;;;;;;;;;;;9.81;62.19;96275.94;5073017;28;974;-57
2023/12/28 10:04:12;;;;;;;;;;;;;;;9.82;61.68;96261.63;5072918;28;1044;-57
2023/12/28 10:06:38;;;;;;;;;;;;;;;9.90;60.83;96262.69;5073009;28;969;-56
2023/12/28 10:09:07;;;;;;;;;;;;;;;10.17;60.98;96250.63;5079823;28;2451;-56
2023/12/28 10:11:33;;;;;;;;;;;;;;;10.47;59.85;96248.97;5096977;28;1001;-56
2023/12/28 10:13:59;;;;;;;;;;;;;;;10.37;60.14;96251.59;5097010;28;1060;-57
2023/12/28 10:16:24;;;;;;;;;;;;;;;10.42;59.83;96235.16;5114977;28;1914;-57
2023/12/28 10:18:50;;;;;;;;;;;;;;;10.80;59.28;96241.66;5117424;28;1072;-56
2023/12/28 10:21:16;;;;;;;;;;;;;;;10.95;58.46;96232.25;5117296;28;1033;-57
2023/12/28 10:23:42;;;;;;;;;;;;;;;11.11;58.72;96224.53;5117071;28;1111;-57
2023/12/28 10:26:08;;;;;;;;;;;;;;;11.10;57.44;96222.84;5117222;28;962;-57
2023/12/28 10:28:36;;;;;;;;;;;;;;;11.28;57.23;96222.16;5116885;28;1253;-56
2023/12/28 10:31:02;;;;;;;;;;;;;;;11.10;56.99;96209.47;5116779;28;1111;-56
2023/12/28 10:33:33;;;;;;;;;;;;;;;11.40;56.59;96213.03;5117141;28;961;-57
2023/12/28 10:35:59;;;;;;;;;;;;;;;11.57;55.89;96207.94;5117047;28;1914;-56
2023/12/28 10:38:27;;;;;;;;;;;;;;;11.44;56.22;96209.09;5116769;28;1032;-57
2023/12/28 10:40:53;;;;;;;;;;;;;;;11.51;55.80;96196.81;5117100;28;1027;-57
2023/12/28 10:43:22;;;;;;;;;;;;;;;11.64;55.17;96195.69;5116636;28;1029;-55
2023/12/28 10:45:50;;;;;;;;;;;;;;;11.72;55.78;96187.75;5116934;28;974;-56
2023/12/28 10:48:18;;;;;;;;;;;;;;;11.70;55.91;96190.59;5116531;28;1182;-56
2023/12/28 10:50:49;;;;;;;;;;;;;;;11.50;56.19;96176.38;5116865;28;992;-57
2023/12/28 10:53:31;;;;;;;;;;;;;;;11.64;56.91;96169.72;5116540;28;1041;-56
2023/12/28 10:55:57;;;;;;;;;;;;;;;11.65;55.72;96167.91;5116680;28;1909;-56
2023/12/28 10:58:45;;;;;;;;;;;;;;;11.51;56.11;96161.13;5116701;28;974;-56
2023/12/28 11:01:12;;;;;;;;;;;;;;;11.82;55.09;96158.28;5116614;28;1070;-56
2023/12/28 11:03:41;;;;;;;;;;;;;;;11.75;55.27;96157.19;5116258;28;1068;-56
2023/12/28 11:06:07;;;;;;;;;;;;;;;11.44;55.31;96152.84;5116231;28;1975;-56
2023/12/28 11:08:34;;;;;;;;;;;;;;;11.32;55.51;96145.94;5116704;28;1067;-57
2023/12/28 11:11:01;;;;;;;;;;;;;;;11.24;55.06;96143.13;5116360;28;1036;-56
2023/12/28 11:13:30;;;;;;;;;;;;;;;11.43;55.07;96139.59;5116089;28;1020;-56
2023/12/28 11:15:56;;;;;;;;;;;;;;;11.87;54.75;96137.25;5115940;28;1983;-56
2023/12/28 11:18:23;;;;;;;;;;;;;;;12.01;53.30;96142.19;5116243;28;974;-56
2023/12/28 11:20:50;;;;;;;;;;;;;;;12.03;54.56;96132.16;5115341;28;1003;-56
2023/12/28 11:23:16;;;;;;;;;;;;;;;11.60;53.88;96122.78;5115756;28;1008;-55
2023/12/28 11:25:42;;;;;;;;;;;;;;;11.84;54.98;96114.28;5116171;28;1039;-57
2023/12/28 11:28:09;;;;;;;;;;;;;;;12.11;54.95;96105.47;5116011;28;1162;-57
2023/12/28 11:30:36;;;;;;;;;;;;;;;12.38;53.09;96116.38;5116119;28;985;-57
2023/12/28 11:33:03;;;;;;;;;;;;;;;12.41;53.86;96108.88;5097731;28;1052;-57
2023/12/28 11:35:36;;;;;;;;;;;;;;;12.32;53.09;96116.97;5115916;28;2012;-57
2023/12/28 11:38:06;;;;;;;;;;;;;;;11.98;53.84;96093.41;5115861;28;1053;-57
2023/12/28 11:40:39;;;;;;;;;;;;;;;11.78;54.68;96089.88;5115804;28;1049;-56
2023/12/28 11:43:14;;;;;;;;;;;;;;;11.87;55.19;96091.69;5115825;28;1068;-56
2023/12/28 11:45:46;;;;;;;;;;;;;;;12.07;54.63;96085.31;5115589;28;1060;-57
2023/12/28 11:48:21;;;;;;;;;;;;;;;12.07;54.67;96076.44;5115397;28;1047;-57
2023/12/28 11:50:47;;;;;;;;;;;;;;;11.93;54.73;96075.06;5115721;28;1003;-57
2023/12/28 11:53:14;;;;;;;;;;;;;;;12.01;55.28;96075.19;5115455;28;984;-56
2023/12/28 11:55:40;;;;;;;;;;;;;;;12.27;54.73;96077.16;5115290;28;1937;-56
2023/12/28 11:58:05;;;;;;;;;;;;;;;12.12;54.45;96079.50;5115292;28;1099;-57
2023/12/28 12:00:31;;;;;;;;;;;;;;;11.83;55.32;96072.38;5115734;28;1044;-57
2023/12/28 12:02:57;;;;;;;;;;;;;;;11.64;55.33;96072.44;5115190;28;1033;-57
2023/12/28 12:05:23;;;;;;;;;;;;;;;11.37;55.23;96062.50;5115112;28;1123;-56
2023/12/28 12:07:49;;;;;;;;;;;;;;;11.32;55.44;96061.13;5115021;28;1088;-56
2023/12/28 12:10:17;;;;;;;;;;;;;;;11.24;56.22;96054.78;5115103;28;981;-57
2023/12/28 12:12:43;;;;;;;;;;;;;;;11.41;56.84;96053.19;5114976;28;1084;-55
2023/12/28 12:15:10;;;;;;;;;;;;;;;11.66;56.62;96059.75;5114556;28;1980;-57
2023/12/28 12:17:36;;;;;;;;;;;;;;;11.90;56.18;96051.25;5114795;28;1051;-56
2023/12/28 12:20:03;;;;;;;;;;;;;;;11.88;55.61;96053.19;5114682;28;1115;-56
2023/12/28 12:22:31;;;;;;;;;;;;;;;11.79;56.29;96044.19;5114704;28;1050;-56
2023/12/28 12:25:00;;;;;;;;;;;;;;;11.81;56.36;96042.22;5114875;28;977;-56
2023/12/28 12:27:26;;;;;;;;;;;;;;;11.86;57.43;96031.91;5114691;28;1161;-56
2023/12/28 12:29:52;;;;;;;;;;;;;;;11.84;56.85;96023.19;5114611;28;1098;-56
2023/12/28 12:32:18;;;;;;;;;;;;;;;11.80;56.59;96021.78;5113722;28;1027;-57
2023/12/28 12:34:44;;;;;;;;;;;;;;;11.74;57.09;96022.34;5114460;28;1910;-56
2023/12/28 12:37:10;;;;;;;;;;;;;;;11.71;56.53;96011.94;5114584;28;1059;-56
2023/12/28 12:39:36;;;;;;;;;;;;;;;11.71;55.95;96010.09;5114610;28;980;-56
2023/12/28 12:42:02;;;;;;;;;;;;;;;11.68;57.17;96006.88;5114664;28;1047;-57
2023/12/28 12:44:29;;;;;;;;;;;;;;;11.52;59.02;96000.31;5114365;28;1040;-56
2023/12/28 12:47:01;;;;;;;;;;;;;;;11.49;59.74;96008.63;5114499;28;1022;-57
2023/12/28 12:49:27;;;;;;;;;;;;;;;11.45;60.75;96003.72;5114264;28;1004;-57
2023/12/28 12:51:53;;;;;;;;;;;;;;;11.45;59.79;95999.19;5114427;28;981;-57
2023/12/28 12:54:19;;;;;;;;;;;;;;;11.36;60.54;95993.88;5114218;28;1025;-55
2023/12/28 12:56:45;;;;;;;;;;;;;;;11.24;59.05;95998.56;5114100;28;1979;-56
2023/12/28 12:59:16;;;;;;;;;;;;;;;11.18;59.86;95999.97;5114310;28;1063;-56
2023/12/28 13:01:42;;;;;;;;;;;;;;;11.18;60.27;95994.63;5114322;28;1036;-56